createdAt,value
2022-09-07T00:01:57.862Z,97720
2022-09-07T00:13:57.908Z,97860
2022-09-07T00:25:57.927Z,97930
2022-09-07T00:37:57.937Z,97870
2022-09-07T00:49:57.903Z,97840
2022-09-07T01:01:58.081Z,97760
2022-09-07T01:13:57.893Z,97760
2022-09-07T01:25:57.860Z,97750
2022-09-07T01:37:57.870Z,97770
2022-09-07T01:49:57.876Z,97740
2022-09-07T02:01:59.472Z,97740
2022-09-07T02:13:57.868Z,97730
2022-09-07T02:25:58.029Z,97720
2022-09-07T02:37:57.865Z,97700
2022-09-07T02:49:57.876Z,97690
2022-09-07T03:01:57.862Z,97690
2022-09-07T03:13:57.816Z,97690
2022-09-07T03:25:57.876Z,97670
2022-09-07T03:37:57.882Z,97670
2022-09-07T03:49:58.466Z,97670
2022-09-07T04:01:58.481Z,97660
2022-09-07T04:13:58.506Z,97670
2022-09-07T04:25:58.149Z,97660
2022-09-07T04:37:57.929Z,97680
2022-09-07T04:49:57.981Z,97700
2022-09-07T05:01:58.614Z,97700
2022-09-07T05:13:58.253Z,97700
2022-09-07T05:25:57.849Z,97720
2022-09-07T05:37:57.848Z,97720
2022-09-07T05:49:57.864Z,97720
2022-09-07T06:01:57.939Z,97720
2022-09-07T06:13:57.966Z,97730
2022-09-07T06:25:57.864Z,97730
2022-09-07T06:37:57.860Z,97750
2022-09-07T06:49:57.961Z,97740
2022-09-07T07:01:57.869Z,97750
2022-09-07T07:13:57.880Z,97770
2022-09-07T07:25:57.872Z,97770
2022-09-07T08:01:58.037Z,97800
2022-09-07T08:13:57.865Z,97800
2022-09-07T08:25:57.870Z,97800
2022-09-07T08:37:58.810Z,97820
2022-09-07T08:49:57.851Z,97830
2022-09-07T09:02:27.855Z,97830
2022-09-07T09:13:57.863Z,97840
2022-09-07T09:25:57.867Z,97840
2022-09-07T09:37:57.844Z,97850
2022-09-07T09:49:57.894Z,97830
2022-09-07T10:13:57.863Z,97830
2022-09-07T10:25:57.848Z,97830
2022-09-07T10:37:57.856Z,97800
2022-09-07T10:50:22.861Z,97790
2022-09-07T11:01:57.904Z,97770
2022-09-07T11:14:12.645Z,97770
2022-09-07T11:25:57.885Z,97750
2022-09-07T11:37:57.856Z,97740
2022-09-07T11:49:59.486Z,97720
2022-09-07T12:01:57.882Z,97710
2022-09-07T12:13:57.842Z,97710
2022-09-07T12:25:57.867Z,97710
2022-09-07T12:37:57.868Z,97700
2022-09-07T12:49:57.899Z,97700
2022-09-07T13:01:57.942Z,97700
2022-09-07T13:14:08.447Z,97690
2022-09-07T13:25:57.872Z,97680
2022-09-07T13:37:57.863Z,97670
2022-09-07T13:49:57.868Z,97650
2022-09-07T14:01:57.905Z,97660
2022-09-07T14:13:58.600Z,97670
2022-09-07T14:26:17.986Z,97670
2022-09-07T14:37:57.866Z,97650
2022-09-07T14:49:57.876Z,97640
2022-09-07T15:01:57.901Z,97640
2022-09-07T15:13:57.855Z,97620
2022-09-07T15:25:57.861Z,97630
2022-09-07T15:38:02.439Z,97630
2022-09-07T15:49:57.872Z,97620
2022-09-07T16:01:58.514Z,97610
2022-09-07T16:14:01.744Z,97600
2022-09-07T16:25:57.892Z,97610
2022-09-07T16:49:57.874Z,97610
2022-09-07T17:01:57.935Z,97590
2022-09-07T17:13:58.007Z,97600
2022-09-07T17:25:57.975Z,97580
2022-09-07T17:37:58.187Z,97590
2022-09-07T17:49:57.923Z,97590
2022-09-07T18:01:57.930Z,97600
2022-09-07T18:13:57.875Z,97610
2022-09-07T18:25:57.870Z,97600
2022-09-07T18:37:57.846Z,97610
2022-09-07T18:49:57.892Z,97600
2022-09-07T19:02:03.595Z,97600
2022-09-07T19:13:57.857Z,97600
2022-09-07T19:25:57.865Z,97580
2022-09-07T19:37:57.875Z,97570
2022-09-07T19:49:57.889Z,97540
2022-09-07T20:01:57.871Z,97530
2022-09-07T20:13:57.872Z,97510
2022-09-07T20:25:57.865Z,97520
2022-09-07T20:37:57.849Z,97510
2022-09-07T20:49:57.874Z,97490
2022-09-07T21:01:57.904Z,97500
2022-09-07T21:13:57.872Z,97490
2022-09-07T21:25:57.882Z,97490
2022-09-07T21:37:57.877Z,97500
2022-09-07T21:49:57.905Z,97510
2022-09-07T22:01:57.943Z,97510
2022-09-07T22:13:57.871Z,97520
2022-09-07T22:25:57.882Z,97510
2022-09-07T22:37:57.865Z,97500
2022-09-07T22:49:57.894Z,97450
2022-09-07T23:01:57.874Z,97460
2022-09-07T23:13:57.868Z,97450
2022-09-07T23:25:57.885Z,97410
2022-09-07T23:37:57.882Z,97400
2022-09-07T23:49:57.830Z,97390
